Flight Track Log - Related Links

Times and Time Zones

All times are in EDT time to prevent confusion due to time zone crossing. See the AAL1862 flight status page for this flight to view local times or setup timezone preferences in your user account.


Time Position Orientation Groundspeed Altitude Reporting Facility
EDT Latitude Longitude Course Direction KTS MPH feet Rate Location/Type
Tue 07:51:35 AM 32.8833 -97.0333 357° North 152 175 1,900  Level Dallas / Fort Worth TRACON
Tue 07:53:17 AM 32.7833 -97.0000 164° South 258 297 5,800 2,630 Climbing Dallas / Fort Worth TRACON
Tue 07:54:00 AM 32.8577 -96.8000 North  Level FlightAware Approximate
Tue 07:54:17 AM 32.7667 -96.9167 103° East 285 328 9,000  Level Dallas / Fort Worth TRACON
Tue 07:55:00 AM 32.9786 -96.8000 North  Level FlightAware Approximate
Tue 07:56:00 AM 33.0994 -96.8023 357° North  Level FlightAware Approximate
Tue 07:56:03 AM 32.8467 -96.8150 47° Northeast 251 289 13,100  Level Fort Worth Center
Tue 07:57:03 AM 32.9364 -96.8069 North 291 335 16,000 2,800 Climbing Fort Worth Center
Tue 07:58:03 AM 33.0322 -96.8114 358° North 338 389 18,700 2,550 Climbing Fort Worth Center
Tue 07:59:03 AM 33.1306 -96.8156 358° North 349 402 21,100 2,300 Climbing Fort Worth Center
Tue 08:00:03 AM 33.2183 -96.8397 347° North 349 402 23,300 2,100 Climbing Fort Worth Center
Tue 08:01:03 AM 33.3269 -96.8739 345° North 359 413 25,300 1,650 Climbing Fort Worth Center
Tue 08:02:03 AM 33.4228 -96.8361 18° North 372 428 26,600 1,650 Climbing Fort Worth Center
Tue 08:03:03 AM 33.5350 -96.7431 35° Northeast 399 459 28,600 1,950 Climbing Fort Worth Center
Tue 08:04:03 AM 33.6264 -96.6750 32° Northeast 423 487 30,500 1,800 Climbing Fort Worth Center
Tue 08:05:03 AM 33.7408 -96.5917 31° Northeast 441 507 32,200 1,700 Climbing Fort Worth Center
Tue 08:06:03 AM 33.8425 -96.5181 31° Northeast 435 501 33,900 1,350 Climbing Fort Worth Center
Tue 08:07:03 AM 33.9464 -96.4444 30° Northeast 424 488 34,900 550 Climbing Fort Worth Center
Tue 08:08:03 AM 34.0481 -96.3706 31° Northeast 424 488 35,000 50 Climbing Fort Worth Center
Tue 08:09:03 AM 34.1558 -96.2917 31° Northeast 430 495 35,000  Level Fort Worth Center
Tue 08:10:03 AM 34.2594 -96.2125 32° Northeast 430 495 35,000  Level Fort Worth Center
Tue 08:11:03 AM 34.3672 -96.1353 31° Northeast 435 501 35,000  Level Fort Worth Center
Tue 08:12:03 AM 34.4728 -96.0583 31° Northeast 435 501 35,000  Level Fort Worth Center
Tue 08:13:03 AM 34.5783 -95.9808 31° Northeast 441 507 35,000  Level Fort Worth Center
Tue 08:14:03 AM 34.6839 -95.9058 30° Northeast 441 507 35,000  Level Fort Worth Center
Tue 08:15:03 AM 34.7872 -95.8258 32° Northeast 441 507 35,000  Level Fort Worth Center
Tue 08:16:03 AM 34.8925 -95.7403 34° Northeast 441 507 35,000  Level Fort Worth Center
Tue 08:17:03 AM 34.9853 -95.6572 36° Northeast 446 513 35,000  Level Fort Worth Center
Tue 08:18:56 AM 35.1800 -95.4708 38° Northeast 472 543 35,000  Level Memphis Center
Tue 08:19:56 AM 35.2753 -95.3825 37° Northeast 449 517 35,000  Level Memphis Center
Tue 08:20:56 AM 35.3728 -95.2892 38° Northeast 444 511 35,000  Level Memphis Center
Tue 08:21:56 AM 35.4725 -95.1956 37° Northeast 444 511 35,000  Level Memphis Center
Tue 08:22:56 AM 35.5722 -95.0994 38° Northeast 444 511 35,000  Level Memphis Center
Tue 08:23:56 AM 35.6697 -95.0028 39° Northeast 444 511 35,000  Level Memphis Center
Tue 08:24:56 AM 35.7669 -94.9111 37° Northeast 444 511 35,000  Level Memphis Center
Tue 08:25:56 AM 35.8619 -94.8164 39° Northeast 439 505 35,000  Level Memphis Center
Tue 08:28:12 AM 36.0733 -94.6108 38° Northeast 445 512 35,000  Level Kansas City Center
Tue 08:29:13 AM 36.1711 -94.5167 38° Northeast 446 513 35,000  Level Kansas City Center
Tue 08:30:15 AM 36.2675 -94.4219 38° Northeast 446 513 35,000  Level Kansas City Center
Tue 08:31:16 AM 36.3631 -94.3275 39° Northeast 444 511 35,000  Level Kansas City Center
Tue 08:32:18 AM 36.4794 -94.2142 38° Northeast 443 510 35,000  Level Kansas City Center
Tue 08:33:19 AM 36.5744 -94.1203 38° Northeast 441 507 35,000  Level Kansas City Center
Tue 08:34:21 AM 36.6689 -94.0256 39° Northeast 439 505 35,000  Level Kansas City Center
Tue 08:35:22 AM 36.7639 -93.9322 38° Northeast 437 503 35,000  Level Kansas City Center
Tue 08:36:24 AM 36.8569 -93.8389 39° Northeast 434 499 35,000  Level Kansas City Center
Tue 08:37:25 AM 36.9569 -93.7369 39° Northeast 428 493 35,000  Level Kansas City Center
Tue 08:38:27 AM 37.0494 -93.6431 39° Northeast 428 493 35,000  Level Kansas City Center
Tue 08:39:28 AM 37.1431 -93.5486 39° Northeast 429 494 35,000  Level Kansas City Center
Tue 08:40:30 AM 37.2378 -93.4536 39° Northeast 432 497 35,000  Level Kansas City Center
Tue 08:41:32 AM 37.3336 -93.3603 38° Northeast 433 498 35,000  Level Kansas City Center
Tue 08:42:33 AM 37.4242 -93.2581 42° Northeast 435 501 35,000  Level Kansas City Center
Tue 08:43:35 AM 37.5103 -93.1525 44° Northeast 431 496 35,000  Level Kansas City Center
Tue 08:44:36 AM 37.6186 -93.0283 42° Northeast 435 501 35,000 -49 Level Kansas City Center
Tue 08:45:38 AM 37.7067 -92.9222 44° Northeast 437 503 34,900 -532 Descending Kansas City Center
Tue 08:46:40 AM 37.7950 -92.8172 43° Northeast 433 498 33,900 -927 Descending Kansas City Center
Tue 08:47:41 AM 37.8764 -92.7222 43° Northeast 430 495 33,000 -976 Descending Kansas City Center
Tue 08:48:43 AM 37.9639 -92.6186 43° Northeast 431 496 31,900 -1,161 Descending Kansas City Center
Tue 08:49:45 AM 38.0517 -92.5128 43° Northeast 434 499 30,600 -1,268 Descending Kansas City Center
Tue 08:50:46 AM 38.1397 -92.4092 43° Northeast 434 499 29,300 -1,317 Descending Kansas City Center
Tue 08:51:48 AM 38.2439 -92.2858 43° Northeast 440 506 27,900 -1,317 Descending Kansas City Center
Tue 08:52:49 AM 38.3342 -92.1750 44° Northeast 445 512 26,600 -1,268 Descending Kansas City Center
Tue 08:53:51 AM 38.4217 -92.0692 43° Northeast 435 501 25,300 -1,403 Descending Kansas City Center
Tue 08:54:53 AM 38.5089 -91.9636 43° Northeast 431 496 23,700 -1,561 Descending Kansas City Center
Tue 08:55:54 AM 38.5928 -91.8617 44° Northeast 419 482 22,100 -1,561 Descending Kansas City Center
Tue 08:56:56 AM 38.6744 -91.7622 44° Northeast 409 471 20,500 -1,790 Descending Kansas City Center
Tue 08:57:58 AM 38.6911 -91.5956 83° East 394 453 18,400 -1,707 Descending Kansas City Center
Tue 08:58:59 AM 38.6939 -91.4525 89° East 398 458 17,000 -1,463 Descending Kansas City Center
Tue 09:00:01 AM 38.6931 -91.3100 90° East 399 459 15,400 -968 Descending Kansas City Center
Tue 09:01:03 AM 38.6931 -91.1750 90° East 393 452 15,000 -1,024 Descending Kansas City Center
Tue 09:02:04 AM 38.6933 -91.0431 90° East 382 440 13,300 -1,756 Descending Kansas City Center
Tue 09:03:06 AM 38.6944 -90.9133 89° East 371 427 11,400 -1,355 Descending Kansas City Center
Tue 09:04:08 AM 38.7017 -90.8014 85° East 327 376 10,500 -1,122 Descending Kansas City Center
Tue 09:05:09 AM 38.7061 -90.7025 87° East 293 337 9,100 -1,220 Descending Kansas City Center
Tue 09:06:11 AM 38.7106 -90.6036 87° East 281 323 8,000 -532 Descending Kansas City Center
Tue 09:07:13 AM 38.7114 -90.4875 89° East 278 320 8,000 -634 Level Kansas City Center
Tue 09:08:14 AM 38.6742 -90.4036 120° Southeast 284 327 6,700 -1,415 Descending Kansas City Center
Tue 09:09:16 AM 38.6275 -90.3147 124° Southeast 276 318 5,100 -1,016 Descending Kansas City Center
Tue 09:10:18 AM 38.5850 -90.2403 126° Southeast 264 304 4,600 -677 Descending Kansas City Center
Tue 09:11:20 AM 38.6253 -90.1975 40° Northeast 207 238 3,700 -871 Descending Kansas City Center

Login

Don't have an account? Register now (free) for customized features, flight alerts, and more!